sensor_id;sensor_type;location;lat;lon;timestamp;P1;durP1;ratioP1;P2;durP2;ratioP2
9729;SDS011;4904;49.152;11.004;2023-04-24T00:01:49;2.17;;;1.50;;
9729;SDS011;4904;49.152;11.004;2023-04-24T00:04:18;2.63;;;1.80;;
9729;SDS011;4904;49.152;11.004;2023-04-24T00:06:45;2.10;;;1.90;;
9729;SDS011;4904;49.152;11.004;2023-04-24T00:09:14;1.88;;;1.70;;
9729;SDS011;4904;49.152;11.004;2023-04-24T00:11:41;2.00;;;1.90;;
9729;SDS011;4904;49.152;11.004;2023-04-24T00:14:08;3.08;;;1.90;;
9729;SDS011;4904;49.152;11.004;2023-04-24T00:16:35;1.92;;;1.80;;
9729;SDS011;4904;49.152;11.004;2023-04-24T00:19:02;3.00;;;1.85;;
9729;SDS011;4904;49.152;11.004;2023-04-24T00:21:31;2.53;;;1.80;;
9729;SDS011;4904;49.152;11.004;2023-04-24T00:23:58;2.55;;;1.77;;
9729;SDS011;4904;49.152;11.004;2023-04-24T00:26:25;1.90;;;1.70;;
9729;SDS011;4904;49.152;11.004;2023-04-24T00:28:52;2.03;;;1.50;;
9729;SDS011;4904;49.152;11.004;2023-04-24T00:31:20;2.38;;;1.70;;
9729;SDS011;4904;49.152;11.004;2023-04-24T00:33:47;1.95;;;1.75;;
9729;SDS011;4904;49.152;11.004;2023-04-24T00:36:14;1.48;;;1.38;;
9729;SDS011;4904;49.152;11.004;2023-04-24T00:38:42;1.60;;;1.48;;
9729;SDS011;4904;49.152;11.004;2023-04-24T00:41:09;1.73;;;1.60;;
9729;SDS011;4904;49.152;11.004;2023-04-24T00:43:37;2.33;;;1.48;;
9729;SDS011;4904;49.152;11.004;2023-04-24T00:46:05;2.90;;;1.50;;
9729;SDS011;4904;49.152;11.004;2023-04-24T00:48:33;1.70;;;1.60;;
9729;SDS011;4904;49.152;11.004;2023-04-24T00:51:00;1.85;;;1.60;;
9729;SDS011;4904;49.152;11.004;2023-04-24T00:53:27;2.83;;;1.52;;
9729;SDS011;4904;49.152;11.004;2023-04-24T00:55:56;1.90;;;1.58;;
9729;SDS011;4904;49.152;11.004;2023-04-24T00:58:24;2.60;;;1.63;;
9729;SDS011;4904;49.152;11.004;2023-04-24T01:00:52;2.17;;;1.60;;
9729;SDS011;4904;49.152;11.004;2023-04-24T01:03:20;3.40;;;1.70;;
9729;SDS011;4904;49.152;11.004;2023-04-24T01:05:48;1.50;;;1.40;;
9729;SDS011;4904;49.152;11.004;2023-04-24T01:08:16;2.75;;;1.60;;
9729;SDS011;4904;49.152;11.004;2023-04-24T01:10:43;3.50;;;1.80;;
9729;SDS011;4904;49.152;11.004;2023-04-24T01:13:12;1.63;;;1.52;;
9729;SDS011;4904;49.152;11.004;2023-04-24T01:15:39;2.95;;;1.52;;
9729;SDS011;4904;49.152;11.004;2023-04-24T01:18:06;1.88;;;1.63;;
9729;SDS011;4904;49.152;11.004;2023-04-24T01:20:33;2.15;;;1.88;;
9729;SDS011;4904;49.152;11.004;2023-04-24T01:23:03;5.10;;;1.67;;
9729;SDS011;4904;49.152;11.004;2023-04-24T01:25:30;1.80;;;1.30;;
9729;SDS011;4904;49.152;11.004;2023-04-24T01:27:57;1.50;;;1.40;;
9729;SDS011;4904;49.152;11.004;2023-04-24T01:30:25;1.75;;;1.50;;
9729;SDS011;4904;49.152;11.004;2023-04-24T01:32:52;1.80;;;1.67;;
9729;SDS011;4904;49.152;11.004;2023-04-24T01:35:19;2.95;;;1.70;;
9729;SDS011;4904;49.152;11.004;2023-04-24T01:37:46;2.25;;;1.58;;
9729;SDS011;4904;49.152;11.004;2023-04-24T01:40:15;1.65;;;1.50;;
9729;SDS011;4904;49.152;11.004;2023-04-24T01:42:42;2.97;;;1.80;;
9729;SDS011;4904;49.152;11.004;2023-04-24T01:45:10;1.60;;;1.50;;
9729;SDS011;4904;49.152;11.004;2023-04-24T01:47:38;1.98;;;1.52;;
9729;SDS011;4904;49.152;11.004;2023-04-24T01:50:06;1.80;;;1.70;;
9729;SDS011;4904;49.152;11.004;2023-04-24T01:52:34;1.83;;;1.63;;
9729;SDS011;4904;49.152;11.004;2023-04-24T01:55:01;2.17;;;1.98;;
9729;SDS011;4904;49.152;11.004;2023-04-24T01:57:30;1.70;;;1.60;;
9729;SDS011;4904;49.152;11.004;2023-04-24T01:59:58;4.95;;;1.67;;
9729;SDS011;4904;49.152;11.004;2023-04-24T02:02:25;1.52;;;1.42;;
9729;SDS011;4904;49.152;11.004;2023-04-24T02:04:53;2.38;;;1.67;;
9729;SDS011;4904;49.152;11.004;2023-04-24T02:07:20;2.92;;;1.73;;
9729;SDS011;4904;49.152;11.004;2023-04-24T02:09:48;2.83;;;1.65;;
9729;SDS011;4904;49.152;11.004;2023-04-24T02:12:15;2.58;;;1.67;;
9729;SDS011;4904;49.152;11.004;2023-04-24T02:14:45;1.80;;;1.70;;
9729;SDS011;4904;49.152;11.004;2023-04-24T02:17:12;1.70;;;1.58;;
9729;SDS011;4904;49.152;11.004;2023-04-24T02:19:40;1.90;;;1.77;;
9729;SDS011;4904;49.152;11.004;2023-04-24T02:22:07;1.77;;;1.50;;
9729;SDS011;4904;49.152;11.004;2023-04-24T02:24:35;1.58;;;1.48;;
9729;SDS011;4904;49.152;11.004;2023-04-24T02:27:03;3.13;;;1.58;;
9729;SDS011;4904;49.152;11.004;2023-04-24T02:29:30;1.50;;;1.40;;
9729;SDS011;4904;49.152;11.004;2023-04-24T02:31:59;1.85;;;1.63;;
9729;SDS011;4904;49.152;11.004;2023-04-24T02:34:25;2.97;;;1.60;;
9729;SDS011;4904;49.152;11.004;2023-04-24T02:36:52;3.08;;;2.10;;
9729;SDS011;4904;49.152;11.004;2023-04-24T02:39:20;2.03;;;1.90;;
9729;SDS011;4904;49.152;11.004;2023-04-24T02:41:47;1.90;;;1.80;;
9729;SDS011;4904;49.152;11.004;2023-04-24T02:44:14;2.58;;;2.38;;
9729;SDS011;4904;49.152;11.004;2023-04-24T02:46:42;2.20;;;2.00;;
9729;SDS011;4904;49.152;11.004;2023-04-24T02:49:11;2.97;;;2.53;;
9729;SDS011;4904;49.152;11.004;2023-04-24T02:51:37;3.67;;;2.88;;
9729;SDS011;4904;49.152;11.004;2023-04-24T02:54:06;2.90;;;2.70;;
9729;SDS011;4904;49.152;11.004;2023-04-24T02:56:34;2.83;;;2.63;;
9729;SDS011;4904;49.152;11.004;2023-04-24T02:59:01;3.20;;;2.90;;
9729;SDS011;4904;49.152;11.004;2023-04-24T03:01:27;2.72;;;2.50;;
9729;SDS011;4904;49.152;11.004;2023-04-24T03:03:54;3.53;;;3.00;;
9729;SDS011;4904;49.152;11.004;2023-04-24T03:06:23;3.15;;;2.80;;
9729;SDS011;4904;49.152;11.004;2023-04-24T03:08:52;4.20;;;3.03;;
9729;SDS011;4904;49.152;11.004;2023-04-24T03:11:18;3.42;;;3.10;;
9729;SDS011;4904;49.152;11.004;2023-04-24T03:13:45;3.97;;;3.03;;
9729;SDS011;4904;49.152;11.004;2023-04-24T03:16:12;3.67;;;3.20;;
9729;SDS011;4904;49.152;11.004;2023-04-24T03:18:39;3.22;;;3.00;;
9729;SDS011;4904;49.152;11.004;2023-04-24T03:21:06;3.53;;;3.20;;
9729;SDS011;4904;49.152;11.004;2023-04-24T03:23:34;3.13;;;2.90;;
9729;SDS011;4904;49.152;11.004;2023-04-24T03:26:02;3.53;;;3.20;;
9729;SDS011;4904;49.152;11.004;2023-04-24T03:28:28;5.25;;;3.25;;
9729;SDS011;4904;49.152;11.004;2023-04-24T03:30:56;3.60;;;3.30;;
9729;SDS011;4904;49.152;11.004;2023-04-24T03:33:23;3.20;;;2.97;;
9729;SDS011;4904;49.152;11.004;2023-04-24T03:35:50;3.75;;;3.20;;
9729;SDS011;4904;49.152;11.004;2023-04-24T03:38:17;3.60;;;3.30;;
9729;SDS011;4904;49.152;11.004;2023-04-24T03:40:45;4.05;;;3.08;;
9729;SDS011;4904;49.152;11.004;2023-04-24T03:43:12;3.67;;;3.00;;
9729;SDS011;4904;49.152;11.004;2023-04-24T03:45:39;3.75;;;3.20;;
9729;SDS011;4904;49.152;11.004;2023-04-24T03:48:06;3.00;;;2.80;;
9729;SDS011;4904;49.152;11.004;2023-04-24T03:50:34;2.92;;;2.60;;
9729;SDS011;4904;49.152;11.004;2023-04-24T03:53:00;3.15;;;2.95;;
9729;SDS011;4904;49.152;11.004;2023-04-24T03:55:28;3.00;;;2.80;;
9729;SDS011;4904;49.152;11.004;2023-04-24T03:57:57;4.05;;;3.00;;
9729;SDS011;4904;49.152;11.004;2023-04-24T04:00:24;2.95;;;2.75;;
9729;SDS011;4904;49.152;11.004;2023-04-24T04:02:52;3.08;;;2.67;;
9729;SDS011;4904;49.152;11.004;2023-04-24T04:05:20;3.28;;;2.97;;
9729;SDS011;4904;49.152;11.004;2023-04-24T04:07:46;3.05;;;2.75;;
9729;SDS011;4904;49.152;11.004;2023-04-24T04:10:13;2.63;;;2.42;;
9729;SDS011;4904;49.152;11.004;2023-04-24T04:12:42;3.60;;;2.90;;
9729;SDS011;4904;49.152;11.004;2023-04-24T04:15:11;4.82;;;3.05;;
9729;SDS011;4904;49.152;11.004;2023-04-24T04:17:38;2.85;;;2.65;;
9729;SDS011;4904;49.152;11.004;2023-04-24T04:20:05;2.97;;;2.70;;
9729;SDS011;4904;49.152;11.004;2023-04-24T04:22:34;3.33;;;2.92;;
9729;SDS011;4904;49.152;11.004;2023-04-24T04:25:02;4.88;;;2.97;;
9729;SDS011;4904;49.152;11.004;2023-04-24T04:27:29;3.03;;;2.83;;
9729;SDS011;4904;49.152;11.004;2023-04-24T04:29:57;3.20;;;2.70;;
9729;SDS011;4904;49.152;11.004;2023-04-24T04:32:27;2.92;;;2.60;;
9729;SDS011;4904;49.152;11.004;2023-04-24T04:34:54;4.13;;;2.92;;
9729;SDS011;4904;49.152;11.004;2023-04-24T04:37:21;2.80;;;2.50;;
9729;SDS011;4904;49.152;11.004;2023-04-24T04:39:48;4.80;;;2.75;;
9729;SDS011;4904;49.152;11.004;2023-04-24T04:42:15;3.85;;;2.60;;
9729;SDS011;4904;49.152;11.004;2023-04-24T04:44:44;3.33;;;2.70;;
9729;SDS011;4904;49.152;11.004;2023-04-24T04:47:11;2.75;;;2.55;;
9729;SDS011;4904;49.152;11.004;2023-04-24T04:49:39;3.13;;;2.60;;
9729;SDS011;4904;49.152;11.004;2023-04-24T04:52:06;3.67;;;2.75;;
9729;SDS011;4904;49.152;11.004;2023-04-24T04:54:33;4.30;;;2.60;;
9729;SDS011;4904;49.152;11.004;2023-04-24T04:57:00;3.50;;;3.15;;
9729;SDS011;4904;49.152;11.004;2023-04-24T04:59:27;2.70;;;2.47;;
9729;SDS011;4904;49.152;11.004;2023-04-24T05:01:54;2.97;;;2.67;;
9729;SDS011;4904;49.152;11.004;2023-04-24T05:04:21;4.63;;;3.00;;
9729;SDS011;4904;49.152;11.004;2023-04-24T05:06:49;4.32;;;2.50;;
9729;SDS011;4904;49.152;11.004;2023-04-24T05:09:17;3.97;;;2.78;;
9729;SDS011;4904;49.152;11.004;2023-04-24T05:11:44;5.10;;;2.40;;
9729;SDS011;4904;49.152;11.004;2023-04-24T05:14:10;3.95;;;2.85;;
9729;SDS011;4904;49.152;11.004;2023-04-24T05:16:38;3.08;;;2.55;;
9729;SDS011;4904;49.152;11.004;2023-04-24T05:19:06;2.65;;;2.45;;
9729;SDS011;4904;49.152;11.004;2023-04-24T05:21:33;3.03;;;2.78;;
9729;SDS011;4904;49.152;11.004;2023-04-24T05:24:01;4.05;;;2.67;;
9729;SDS011;4904;49.152;11.004;2023-04-24T05:26:29;4.72;;;2.60;;
9729;SDS011;4904;49.152;11.004;2023-04-24T05:28:56;5.13;;;2.95;;
9729;SDS011;4904;49.152;11.004;2023-04-24T05:31:22;3.80;;;2.70;;
9729;SDS011;4904;49.152;11.004;2023-04-24T05:33:50;2.92;;;2.50;;
9729;SDS011;4904;49.152;11.004;2023-04-24T05:36:17;3.38;;;2.95;;
9729;SDS011;4904;49.152;11.004;2023-04-24T05:38:44;3.42;;;2.50;;
9729;SDS011;4904;49.152;11.004;2023-04-24T05:41:13;3.78;;;2.63;;
9729;SDS011;4904;49.152;11.004;2023-04-24T05:43:40;4.07;;;2.58;;
9729;SDS011;4904;49.152;11.004;2023-04-24T05:46:07;3.58;;;2.60;;
9729;SDS011;4904;49.152;11.004;2023-04-24T05:48:34;2.67;;;2.38;;
9729;SDS011;4904;49.152;11.004;2023-04-24T05:51:00;5.18;;;2.75;;
9729;SDS011;4904;49.152;11.004;2023-04-24T05:53:27;3.15;;;2.42;;
9729;SDS011;4904;49.152;11.004;2023-04-24T05:55:54;2.95;;;2.35;;
9729;SDS011;4904;49.152;11.004;2023-04-24T05:58:23;3.05;;;2.75;;
9729;SDS011;4904;49.152;11.004;2023-04-24T06:00:50;2.38;;;2.17;;
9729;SDS011;4904;49.152;11.004;2023-04-24T06:03:17;3.50;;;2.65;;
9729;SDS011;4904;49.152;11.004;2023-04-24T06:05:44;3.45;;;2.60;;
9729;SDS011;4904;49.152;11.004;2023-04-24T06:08:11;5.55;;;2.90;;
9729;SDS011;4904;49.152;11.004;2023-04-24T06:10:38;6.07;;;3.20;;
9729;SDS011;4904;49.152;11.004;2023-04-24T06:13:06;4.95;;;2.70;;
9729;SDS011;4904;49.152;11.004;2023-04-24T06:15:34;4.13;;;2.17;;
9729;SDS011;4904;49.152;11.004;2023-04-24T06:18:01;1.98;;;1.88;;
9729;SDS011;4904;49.152;11.004;2023-04-24T06:20:28;2.15;;;1.95;;
9729;SDS011;4904;49.152;11.004;2023-04-24T06:22:55;2.50;;;2.00;;
9729;SDS011;4904;49.152;11.004;2023-04-24T06:25:24;5.00;;;2.33;;
9729;SDS011;4904;49.152;11.004;2023-04-24T06:27:51;2.30;;;2.10;;
9729;SDS011;4904;49.152;11.004;2023-04-24T06:30:18;2.28;;;1.98;;
9729;SDS011;4904;49.152;11.004;2023-04-24T06:32:46;2.20;;;1.80;;
9729;SDS011;4904;49.152;11.004;2023-04-24T06:35:13;3.03;;;1.83;;
9729;SDS011;4904;49.152;11.004;2023-04-24T06:37:41;3.63;;;1.45;;
9729;SDS011;4904;49.152;11.004;2023-04-24T06:40:09;2.05;;;1.88;;
9729;SDS011;4904;49.152;11.004;2023-04-24T06:42:36;1.63;;;1.52;;
9729;SDS011;4904;49.152;11.004;2023-04-24T06:45:03;1.90;;;1.80;;
9729;SDS011;4904;49.152;11.004;2023-04-24T06:47:31;2.28;;;1.73;;
9729;SDS011;4904;49.152;11.004;2023-04-24T06:49:59;1.95;;;1.50;;
9729;SDS011;4904;49.152;11.004;2023-04-24T06:52:26;1.70;;;1.60;;
9729;SDS011;4904;49.152;11.004;2023-04-24T06:54:59;1.33;;;1.23;;
9729;SDS011;4904;49.152;11.004;2023-04-24T06:57:27;1.67;;;1.10;;
9729;SDS011;4904;49.152;11.004;2023-04-24T06:59:54;1.88;;;1.40;;
9729;SDS011;4904;49.152;11.004;2023-04-24T07:02:21;1.38;;;1.25;;
9729;SDS011;4904;49.152;11.004;2023-04-24T07:04:48;1.50;;;1.40;;
9729;SDS011;4904;49.152;11.004;2023-04-24T07:07:17;1.88;;;1.25;;
9729;SDS011;4904;49.152;11.004;2023-04-24T07:09:44;1.40;;;1.30;;
9729;SDS011;4904;49.152;11.004;2023-04-24T07:12:11;1.20;;;1.10;;
9729;SDS011;4904;49.152;11.004;2023-04-24T07:14:38;1.40;;;1.27;;
9729;SDS011;4904;49.152;11.004;2023-04-24T07:17:06;1.65;;;1.55;;
9729;SDS011;4904;49.152;11.004;2023-04-24T07:19:33;2.20;;;1.30;;
9729;SDS011;4904;49.152;11.004;2023-04-24T07:22:00;2.13;;;1.65;;
9729;SDS011;4904;49.152;11.004;2023-04-24T07:24:29;1.20;;;1.10;;
9729;SDS011;4904;49.152;11.004;2023-04-24T07:26:57;1.70;;;1.25;;
9729;SDS011;4904;49.152;11.004;2023-04-24T07:29:26;1.67;;;1.33;;
9729;SDS011;4904;49.152;11.004;2023-04-24T07:31:53;1.13;;;1.05;;
9729;SDS011;4904;49.152;11.004;2023-04-24T07:34:20;1.60;;;1.50;;
9729;SDS011;4904;49.152;11.004;2023-04-24T07:36:46;1.73;;;1.15;;
9729;SDS011;4904;49.152;11.004;2023-04-24T07:39:14;2.95;;;1.70;;
9729;SDS011;4904;49.152;11.004;2023-04-24T07:41:42;2.13;;;1.50;;
9729;SDS011;4904;49.152;11.004;2023-04-24T07:44:09;2.03;;;1.63;;
9729;SDS011;4904;49.152;11.004;2023-04-24T07:46:36;2.10;;;1.80;;
9729;SDS011;4904;49.152;11.004;2023-04-24T07:49:03;1.60;;;1.50;;
9729;SDS011;4904;49.152;11.004;2023-04-24T07:51:31;2.17;;;1.50;;
9729;SDS011;4904;49.152;11.004;2023-04-24T07:54:03;1.60;;;1.50;;
9729;SDS011;4904;49.152;11.004;2023-04-24T07:56:33;1.60;;;1.50;;
9729;SDS011;4904;49.152;11.004;2023-04-24T07:59:05;2.03;;;1.83;;
9729;SDS011;4904;49.152;11.004;2023-04-24T08:01:32;1.77;;;1.67;;
9729;SDS011;4904;49.152;11.004;2023-04-24T08:03:59;1.70;;;1.60;;
9729;SDS011;4904;49.152;11.004;2023-04-24T08:06:27;1.90;;;1.70;;
9729;SDS011;4904;49.152;11.004;2023-04-24T08:08:55;2.95;;;1.98;;
9729;SDS011;4904;49.152;11.004;2023-04-24T08:11:22;3.00;;;2.08;;
9729;SDS011;4904;49.152;11.004;2023-04-24T08:13:49;3.22;;;2.10;;
9729;SDS011;4904;49.152;11.004;2023-04-24T08:16:17;4.25;;;1.80;;
9729;SDS011;4904;49.152;11.004;2023-04-24T08:18:45;2.45;;;2.05;;
9729;SDS011;4904;49.152;11.004;2023-04-24T08:21:13;2.15;;;1.90;;
9729;SDS011;4904;49.152;11.004;2023-04-24T08:23:42;2.20;;;2.00;;
9729;SDS011;4904;49.152;11.004;2023-04-24T08:26:09;2.13;;;1.92;;
9729;SDS011;4904;49.152;11.004;2023-04-24T08:28:36;3.33;;;3.08;;
9729;SDS011;4904;49.152;11.004;2023-04-24T08:31:03;1.95;;;1.85;;
9729;SDS011;4904;49.152;11.004;2023-04-24T08:33:33;3.55;;;3.10;;
9729;SDS011;4904;49.152;11.004;2023-04-24T08:36:00;2.30;;;2.10;;
9729;SDS011;4904;49.152;11.004;2023-04-24T08:38:28;2.78;;;2.40;;
9729;SDS011;4904;49.152;11.004;2023-04-24T08:40:55;2.50;;;2.28;;
9729;SDS011;4904;49.152;11.004;2023-04-24T08:43:24;1.92;;;1.83;;
9729;SDS011;4904;49.152;11.004;2023-04-24T08:45:52;2.00;;;1.85;;
9729;SDS011;4904;49.152;11.004;2023-04-24T08:48:21;1.73;;;1.63;;
9729;SDS011;4904;49.152;11.004;2023-04-24T08:50:50;2.58;;;2.10;;
9729;SDS011;4904;49.152;11.004;2023-04-24T08:53:17;2.10;;;1.70;;
9729;SDS011;4904;49.152;11.004;2023-04-24T08:55:46;2.38;;;1.85;;
9729;SDS011;4904;49.152;11.004;2023-04-24T08:58:15;3.45;;;1.75;;
9729;SDS011;4904;49.152;11.004;2023-04-24T09:00:43;2.30;;;1.48;;
9729;SDS011;4904;49.152;11.004;2023-04-24T09:03:13;2.92;;;1.90;;
9729;SDS011;4904;49.152;11.004;2023-04-24T09:05:41;2.20;;;2.00;;
9729;SDS011;4904;49.152;11.004;2023-04-24T09:08:12;2.53;;;1.98;;
9729;SDS011;4904;49.152;11.004;2023-04-24T09:10:40;1.80;;;1.70;;
9729;SDS011;4904;49.152;11.004;2023-04-24T09:13:07;2.10;;;1.90;;
9729;SDS011;4904;49.152;11.004;2023-04-24T09:15:35;1.77;;;1.67;;
9729;SDS011;4904;49.152;11.004;2023-04-24T09:18:03;2.00;;;1.60;;
9729;SDS011;4904;49.152;11.004;2023-04-24T09:20:31;1.95;;;1.75;;
9729;SDS011;4904;49.152;11.004;2023-04-24T09:22:58;2.22;;;1.60;;
9729;SDS011;4904;49.152;11.004;2023-04-24T09:25:31;1.90;;;1.65;;
9729;SDS011;4904;49.152;11.004;2023-04-24T09:28:01;2.33;;;1.90;;
9729;SDS011;4904;49.152;11.004;2023-04-24T09:30:29;1.77;;;1.67;;
9729;SDS011;4904;49.152;11.004;2023-04-24T09:35:40;1.80;;;1.70;;
9729;SDS011;4904;49.152;11.004;2023-04-24T09:38:08;1.40;;;1.30;;
9729;SDS011;4904;49.152;11.004;2023-04-24T09:40:37;1.70;;;1.60;;
9729;SDS011;4904;49.152;11.004;2023-04-24T09:43:04;2.75;;;1.40;;
9729;SDS011;4904;49.152;11.004;2023-04-24T09:45:37;1.42;;;1.30;;
9729;SDS011;4904;49.152;11.004;2023-04-24T09:48:07;2.03;;;1.67;;
9729;SDS011;4904;49.152;11.004;2023-04-24T09:50:36;2.03;;;1.80;;
9729;SDS011;4904;49.152;11.004;2023-04-24T09:53:04;1.50;;;1.40;;
9729;SDS011;4904;49.152;11.004;2023-04-24T09:55:33;1.65;;;1.27;;
9729;SDS011;4904;49.152;11.004;2023-04-24T09:58:11;1.70;;;1.50;;
9729;SDS011;4904;49.152;11.004;2023-04-24T10:00:38;1.95;;;1.52;;
9729;SDS011;4904;49.152;11.004;2023-04-24T10:03:06;1.55;;;1.30;;
9729;SDS011;4904;49.152;11.004;2023-04-24T10:05:33;1.30;;;1.20;;
9729;SDS011;4904;49.152;11.004;2023-04-24T10:08:02;1.75;;;1.45;;
9729;SDS011;4904;49.152;11.004;2023-04-24T10:10:31;1.75;;;1.40;;
9729;SDS011;4904;49.152;11.004;2023-04-24T10:13:01;2.00;;;1.90;;
9729;SDS011;4904;49.152;11.004;2023-04-24T10:15:29;1.65;;;1.55;;
9729;SDS011;4904;49.152;11.004;2023-04-24T10:17:57;2.42;;;1.67;;
9729;SDS011;4904;49.152;11.004;2023-04-24T10:20:26;1.48;;;1.38;;
9729;SDS011;4904;49.152;11.004;2023-04-24T10:22:54;1.42;;;1.33;;
9729;SDS011;4904;49.152;11.004;2023-04-24T10:25:23;1.50;;;1.40;;
9729;SDS011;4904;49.152;11.004;2023-04-24T10:27:51;3.38;;;1.40;;
9729;SDS011;4904;49.152;11.004;2023-04-24T10:30:23;1.60;;;1.40;;
9729;SDS011;4904;49.152;11.004;2023-04-24T10:32:51;2.80;;;1.33;;
9729;SDS011;4904;49.152;11.004;2023-04-24T10:35:19;1.77;;;1.65;;
9729;SDS011;4904;49.152;11.004;2023-04-24T10:37:48;1.60;;;1.45;;
9729;SDS011;4904;49.152;11.004;2023-04-24T10:40:17;1.50;;;1.40;;
9729;SDS011;4904;49.152;11.004;2023-04-24T10:42:46;2.15;;;1.50;;
9729;SDS011;4904;49.152;11.004;2023-04-24T10:45:17;1.58;;;1.48;;
9729;SDS011;4904;49.152;11.004;2023-04-24T10:47:54;1.38;;;1.27;;
9729;SDS011;4904;49.152;11.004;2023-04-24T10:50:25;1.38;;;1.23;;
9729;SDS011;4904;49.152;11.004;2023-04-24T10:52:53;1.38;;;1.00;;
9729;SDS011;4904;49.152;11.004;2023-04-24T10:55:39;1.17;;;1.08;;
9729;SDS011;4904;49.152;11.004;2023-04-24T10:58:07;0.80;;;0.80;;
9729;SDS011;4904;49.152;11.004;2023-04-24T11:00:35;1.00;;;1.00;;
9729;SDS011;4904;49.152;11.004;2023-04-24T11:03:05;0.85;;;0.80;;
9729;SDS011;4904;49.152;11.004;2023-04-24T11:05:49;0.80;;;0.80;;
9729;SDS011;4904;49.152;11.004;2023-04-24T11:08:22;1.83;;;1.00;;
9729;SDS011;4904;49.152;11.004;2023-04-24T11:10:58;1.27;;;1.10;;
9729;SDS011;4904;49.152;11.004;2023-04-24T11:13:31;2.20;;;1.38;;
9729;SDS011;4904;49.152;11.004;2023-04-24T11:16:44;3.15;;;1.30;;
9729;SDS011;4904;49.152;11.004;2023-04-24T11:19:20;0.95;;;0.90;;
9729;SDS011;4904;49.152;11.004;2023-04-24T11:21:54;2.25;;;0.90;;
9729;SDS011;4904;49.152;11.004;2023-04-24T11:24:25;1.40;;;0.98;;
9729;SDS011;4904;49.152;11.004;2023-04-24T11:26:54;1.23;;;1.13;;
9729;SDS011;4904;49.152;11.004;2023-04-24T11:29:23;1.20;;;1.00;;
9729;SDS011;4904;49.152;11.004;2023-04-24T11:32:14;1.70;;;1.10;;
9729;SDS011;4904;49.152;11.004;2023-04-24T11:34:53;1.92;;;1.13;;
9729;SDS011;4904;49.152;11.004;2023-04-24T11:37:22;1.40;;;1.30;;
9729;SDS011;4904;49.152;11.004;2023-04-24T11:39:53;0.93;;;0.93;;
9729;SDS011;4904;49.152;11.004;2023-04-24T11:42:21;1.17;;;1.10;;
9729;SDS011;4904;49.152;11.004;2023-04-24T11:44:49;1.40;;;1.00;;
9729;SDS011;4904;49.152;11.004;2023-04-24T11:47:16;1.00;;;1.00;;
9729;SDS011;4904;49.152;11.004;2023-04-24T11:49:43;1.20;;;1.10;;
9729;SDS011;4904;49.152;11.004;2023-04-24T11:52:16;1.20;;;1.10;;
9729;SDS011;4904;49.152;11.004;2023-04-24T11:54:47;1.35;;;1.25;;
9729;SDS011;4904;49.152;11.004;2023-04-24T11:57:16;1.13;;;1.02;;
9729;SDS011;4904;49.152;11.004;2023-04-24T11:59:45;1.02;;;0.93;;
9729;SDS011;4904;49.152;11.004;2023-04-24T12:02:19;1.30;;;1.20;;
9729;SDS011;4904;49.152;11.004;2023-04-24T12:04:47;1.75;;;1.13;;
9729;SDS011;4904;49.152;11.004;2023-04-24T12:07:16;1.00;;;1.00;;
9729;SDS011;4904;49.152;11.004;2023-04-24T12:09:43;1.00;;;1.00;;
9729;SDS011;4904;49.152;11.004;2023-04-24T12:12:12;1.38;;;1.27;;
9729;SDS011;4904;49.152;11.004;2023-04-24T12:14:43;1.13;;;1.00;;
9729;SDS011;4904;49.152;11.004;2023-04-24T12:17:11;1.40;;;1.13;;
9729;SDS011;4904;49.152;11.004;2023-04-24T12:19:44;1.10;;;1.10;;
9729;SDS011;4904;49.152;11.004;2023-04-24T12:22:11;1.30;;;1.20;;
9729;SDS011;4904;49.152;11.004;2023-04-24T12:27:30;1.30;;;1.20;;
9729;SDS011;4904;49.152;11.004;2023-04-24T12:29:58;1.23;;;1.13;;
9729;SDS011;4904;49.152;11.004;2023-04-24T12:32:26;1.42;;;1.33;;
9729;SDS011;4904;49.152;11.004;2023-04-24T12:34:54;1.50;;;1.40;;
9729;SDS011;4904;49.152;11.004;2023-04-24T12:37:22;1.50;;;1.40;;
9729;SDS011;4904;49.152;11.004;2023-04-24T12:40:00;3.50;;;1.15;;
9729;SDS011;4904;49.152;11.004;2023-04-24T12:42:30;1.95;;;1.67;;
9729;SDS011;4904;49.152;11.004;2023-04-24T12:44:59;1.50;;;1.40;;
9729;SDS011;4904;49.152;11.004;2023-04-24T12:47:31;1.60;;;1.50;;
9729;SDS011;4904;49.152;11.004;2023-04-24T12:49:59;2.95;;;1.80;;
9729;SDS011;4904;49.152;11.004;2023-04-24T12:52:27;1.40;;;1.35;;
9729;SDS011;4904;49.152;11.004;2023-04-24T12:54:56;1.58;;;1.38;;
9729;SDS011;4904;49.152;11.004;2023-04-24T12:57:25;1.70;;;1.60;;
9729;SDS011;4904;49.152;11.004;2023-04-24T12:59:56;3.00;;;1.50;;
9729;SDS011;4904;49.152;11.004;2023-04-24T13:02:25;1.95;;;1.45;;
9729;SDS011;4904;49.152;11.004;2023-04-24T13:04:54;1.58;;;1.48;;
9729;SDS011;4904;49.152;11.004;2023-04-24T13:07:21;2.00;;;1.70;;
9729;SDS011;4904;49.152;11.004;2023-04-24T13:09:49;1.58;;;1.48;;
9729;SDS011;4904;49.152;11.004;2023-04-24T13:12:16;2.92;;;1.23;;
9729;SDS011;4904;49.152;11.004;2023-04-24T13:14:46;2.40;;;1.60;;
9729;SDS011;4904;49.152;11.004;2023-04-24T13:17:13;2.33;;;1.23;;
9729;SDS011;4904;49.152;11.004;2023-04-24T13:19:41;1.58;;;1.48;;
9729;SDS011;4904;49.152;11.004;2023-04-24T13:22:10;2.20;;;1.75;;
9729;SDS011;4904;49.152;11.004;2023-04-24T13:24:38;3.53;;;1.50;;
9729;SDS011;4904;49.152;11.004;2023-04-24T13:27:06;1.90;;;1.80;;
9729;SDS011;4904;49.152;11.004;2023-04-24T13:29:34;1.45;;;1.35;;
9729;SDS011;4904;49.152;11.004;2023-04-24T13:32:02;2.53;;;1.98;;
9729;SDS011;4904;49.152;11.004;2023-04-24T13:34:30;1.48;;;1.38;;
9729;SDS011;4904;49.152;11.004;2023-04-24T13:36:57;2.00;;;1.80;;
9729;SDS011;4904;49.152;11.004;2023-04-24T13:39:25;2.20;;;2.00;;
9729;SDS011;4904;49.152;11.004;2023-04-24T13:41:52;2.65;;;2.05;;
9729;SDS011;4904;49.152;11.004;2023-04-24T13:44:19;1.92;;;1.77;;
9729;SDS011;4904;49.152;11.004;2023-04-24T13:46:48;1.40;;;1.30;;
9729;SDS011;4904;49.152;11.004;2023-04-24T13:49:20;2.38;;;2.17;;
9729;SDS011;4904;49.152;11.004;2023-04-24T13:51:49;2.08;;;1.90;;
9729;SDS011;4904;49.152;11.004;2023-04-24T13:54:17;2.38;;;1.80;;
9729;SDS011;4904;49.152;11.004;2023-04-24T13:56:44;2.70;;;2.00;;
9729;SDS011;4904;49.152;11.004;2023-04-24T13:59:12;2.00;;;1.90;;
9729;SDS011;4904;49.152;11.004;2023-04-24T14:01:39;2.03;;;1.75;;
9729;SDS011;4904;49.152;11.004;2023-04-24T14:04:06;2.55;;;1.45;;
9729;SDS011;4904;49.152;11.004;2023-04-24T14:06:35;2.08;;;1.80;;
9729;SDS011;4904;49.152;11.004;2023-04-24T14:09:02;1.80;;;1.50;;
9729;SDS011;4904;49.152;11.004;2023-04-24T14:11:29;1.38;;;1.27;;
9729;SDS011;4904;49.152;11.004;2023-04-24T14:13:56;1.95;;;1.77;;
9729;SDS011;4904;49.152;11.004;2023-04-24T14:16:23;1.77;;;1.67;;
9729;SDS011;4904;49.152;11.004;2023-04-24T14:18:51;1.70;;;1.60;;
9729;SDS011;4904;49.152;11.004;2023-04-24T14:21:18;1.88;;;1.77;;
9729;SDS011;4904;49.152;11.004;2023-04-24T14:23:47;3.13;;;1.65;;
9729;SDS011;4904;49.152;11.004;2023-04-24T14:26:14;4.25;;;1.95;;
9729;SDS011;4904;49.152;11.004;2023-04-24T14:28:41;2.08;;;1.88;;
9729;SDS011;4904;49.152;11.004;2023-04-24T14:31:08;1.95;;;1.85;;
9729;SDS011;4904;49.152;11.004;2023-04-24T14:33:35;2.03;;;1.92;;
9729;SDS011;4904;49.152;11.004;2023-04-24T14:36:02;2.53;;;1.98;;
9729;SDS011;4904;49.152;11.004;2023-04-24T14:38:30;2.20;;;2.00;;
9729;SDS011;4904;49.152;11.004;2023-04-24T14:40:59;2.85;;;1.83;;
9729;SDS011;4904;49.152;11.004;2023-04-24T14:43:27;2.95;;;1.95;;
9729;SDS011;4904;49.152;11.004;2023-04-24T14:45:54;6.57;;;2.05;;
9729;SDS011;4904;49.152;11.004;2023-04-24T14:48:21;2.10;;;1.55;;
9729;SDS011;4904;49.152;11.004;2023-04-24T14:50:48;1.75;;;1.65;;
9729;SDS011;4904;49.152;11.004;2023-04-24T14:53:15;2.67;;;1.40;;
9729;SDS011;4904;49.152;11.004;2023-04-24T14:55:43;1.40;;;1.30;;
9729;SDS011;4904;49.152;11.004;2023-04-24T14:58:12;1.35;;;1.25;;
9729;SDS011;4904;49.152;11.004;2023-04-24T15:00:39;1.67;;;1.58;;
9729;SDS011;4904;49.152;11.004;2023-04-24T15:03:06;2.13;;;1.80;;
9729;SDS011;4904;49.152;11.004;2023-04-24T15:05:33;1.63;;;1.52;;
9729;SDS011;4904;49.152;11.004;2023-04-24T15:08:00;1.50;;;1.40;;
9729;SDS011;4904;49.152;11.004;2023-04-24T15:10:27;1.30;;;1.02;;
9729;SDS011;4904;49.152;11.004;2023-04-24T15:12:54;1.52;;;1.42;;